Capitol, Virginia
Current Conditions -  °F | °C
As of 2:54 PM on Sunday 25 Jan 2015 (Local Time) from KRIC Reporting Station
Broken Clouds Broken Clouds  
Wind Chill: 53°   Ceiling: 25000
Heat Index: 53°   Visibility: 10mi
Dew Point: 32°   Wind: 7mph
Humidity: 45%   Direction: 160°SSE
Pressure: 29.84"   Gusts: NA
Location:  37.5411°N, 77.4346°W
Report Text: KRIC 251954Z 16006KT 10SM BKN250 12/00 A2984 RMK AO2 SLP109 T01170000
Loading
Personal Weather Stations






























Interactive Weather Map New forecast layout! Learn more

10-Day Weather Forecast

Advertisements
Track Severe Weather on mobile